Athens, Vermont
Current Conditions -  °F | °C
As of 9:54 PM on Saturday 24 Jan 2015 (Local Time) from KVSF Reporting Station
Overcast Overcast  
Wind Chill: 24°   Ceiling: 4900
Heat Index: 30°   Visibility: 10mi
Dew Point: 22°   Wind: 6mph
Humidity: 72%   Direction: NA
Pressure: 29.3"   Gusts: NA
Location:  43.2811°N, 72.6352°W
Report Text: KVSF 250254Z AUTO VRB05KT 10SM OVC049 M01/M06 A2930 RMK AO2 SLP930 I3000 T10111056 53012 TSNO
Loading
Personal Weather Stations






























Interactive Weather Map New forecast layout! Learn more

10-Day Weather Forecast

Advertisements
Track Severe Weather on mobile